Check out our new PWSWeather beta!
PWSweather.com
Personal Weather Stations
Station Observations
KMIEASTT1
Tawas Bay, East Tawas, MI 48730

Tawas BayEast Tawas, MI 48730

Lat: 44.28, Lon: -83.48

Elevation: 600

Station Type: Davis VantagePro

http://www.tawasbayweather.com

High Low Average
Temperature 31.4°F-0.3°C 15.0°F-9.4°C 25.9°F-3.4°C
Dew Point 29.2°F-1.6°C 8.8°F-12.9°C 21.5°F-5.8°C
Winds 22.0 mph 35.4 kmh Calm Calm 5.0 mph NW8.0 kmh NW
Wind Gusts 27.0 mph43.5 kmh 1.0 mph1.6 kmh 9.0 mph14.5 kmh
Humidity 93% 72% 83%
Pressure 30.81 in1043.3 mb 30.10 in1019.3 mb -
Precipitation 0.00 in0.0 mm - -
Hour Temp Dew Point Humidity Winds Wind Gusts Pressure Precip Precip Rate Daily Precip Total
12:00 AM 31.0°F-0.6°C 29.2°F-1.6°C 93% 3.0 mph NNW4.8 kmh NNW 4.0 mph6.4 kmh 30.10 in1019.3 mb 0.00 in0.0 mm 0.00 in0.0 mm 0.00 in0.0 mm
12:15 AM 30.9°F-0.6°C 29.1°F-1.6°C 93% 3.0 mph NNW4.8 kmh NNW 4.0 mph6.4 kmh 30.10 in1019.3 mb 0.00 in0.0 mm 0.00 in0.0 mm 0.00 in0.0 mm
12:30 AM 30.8°F-0.7°C 29.0°F-1.7°C 93% 3.0 mph N4.8 kmh N 4.0 mph6.4 kmh 30.10 in1019.3 mb 0.00 in0.0 mm 0.00 in0.0 mm 0.00 in0.0 mm
12:45 AM 30.7°F-0.7°C 28.9°F-1.7°C 93% 2.0 mph N3.2 kmh N 5.0 mph8.0 kmh 30.11 in1019.6 mb 0.00 in0.0 mm 0.00 in0.0 mm 0.00 in0.0 mm
01:00 AM 30.4°F-0.9°C 28.4°F-2.0°C 92% 4.0 mph NNW6.4 kmh NNW 4.0 mph6.4 kmh 30.10 in1019.3 mb 0.00 in0.0 mm 0.00 in0.0 mm 0.00 in0.0 mm
01:15 AM 30.2°F-1.0°C 28.4°F-2.0°C 93% 4.0 mph NNW6.4 kmh NNW 4.0 mph6.4 kmh 30.11 in1019.6 mb 0.00 in0.0 mm 0.00 in0.0 mm 0.00 in0.0 mm
01:30 AM 30.2°F-1.0°C 28.4°F-2.0°C 93% 2.0 mph N3.2 kmh N 4.0 mph6.4 kmh 30.12 in1020.0 mb 0.00 in0.0 mm 0.00 in0.0 mm 0.00 in0.0 mm
01:45 AM 30.0°F-1.1°C 28.2°F-2.1°C 93% 3.0 mph NNW4.8 kmh NNW 8.0 mph12.9 kmh 30.13 in1020.3 mb 0.00 in0.0 mm 0.00 in0.0 mm 0.00 in0.0 mm
02:00 AM 30.1°F-1.1°C 28.1°F-2.2°C 92% 2.0 mph N3.2 kmh N 7.0 mph11.3 kmh 30.14 in1020.7 mb 0.00 in0.0 mm 0.00 in0.0 mm 0.00 in0.0 mm
02:15 AM 30.1°F-1.1°C 27.8°F-2.3°C 91% 3.0 mph N4.8 kmh N 14.0 mph22.5 kmh 30.15 in1021.0 mb 0.00 in0.0 mm 0.00 in0.0 mm 0.00 in0.0 mm
02:30 AM 30.0°F-1.1°C 27.4°F-2.6°C 90% 5.0 mph NNW8.0 kmh NNW 8.0 mph12.9 kmh 30.16 in1021.3 mb 0.00 in0.0 mm 0.00 in0.0 mm 0.00 in0.0 mm
02:45 AM 29.8°F-1.2°C 27.2°F-2.7°C 90% 2.0 mph N3.2 kmh N 5.0 mph8.0 kmh 30.16 in1021.3 mb 0.00 in0.0 mm 0.00 in0.0 mm 0.00 in0.0 mm
03:00 AM 29.7°F-1.3°C 27.1°F-2.7°C 90% 2.0 mph NW3.2 kmh NW 5.0 mph8.0 kmh 30.16 in1021.3 mb 0.00 in0.0 mm 0.00 in0.0 mm 0.00 in0.0 mm
03:15 AM 29.3°F-1.5°C 26.7°F-2.9°C 90% 3.0 mph NW4.8 kmh NW 6.0 mph9.7 kmh 30.17 in1021.7 mb 0.00 in0.0 mm 0.00 in0.0 mm 0.00 in0.0 mm
03:30 AM 29.5°F-1.4°C 26.9°F-2.8°C 90% 3.0 mph NNW4.8 kmh NNW 4.0 mph6.4 kmh 30.17 in1021.7 mb 0.00 in0.0 mm 0.00 in0.0 mm 0.00 in0.0 mm
03:45 AM 29.5°F-1.4°C 26.9°F-2.8°C 90% 3.0 mph NW4.8 kmh NW 5.0 mph8.0 kmh 30.18 in1022.0 mb 0.00 in0.0 mm 0.00 in0.0 mm 0.00 in0.0 mm
04:00 AM 29.4°F-1.4°C 26.8°F-2.9°C 90% 2.0 mph NW3.2 kmh NW 7.0 mph11.3 kmh 30.18 in1022.0 mb 0.00 in0.0 mm 0.00 in0.0 mm 0.00 in0.0 mm
04:15 AM 29.4°F-1.4°C 26.8°F-2.9°C 90% 3.0 mph NNW4.8 kmh NNW 6.0 mph9.7 kmh 30.19 in1022.4 mb 0.00 in0.0 mm 0.00 in0.0 mm 0.00 in0.0 mm
04:30 AM 29.5°F-1.4°C 26.9°F-2.8°C 90% Calm Calm 1.0 mph1.6 kmh 30.19 in1022.4 mb 0.00 in0.0 mm 0.00 in0.0 mm 0.00 in0.0 mm
04:45 AM 29.4°F-1.4°C 26.8°F-2.9°C 90% 3.0 mph NNW4.8 kmh NNW 5.0 mph8.0 kmh 30.20 in1022.7 mb 0.00 in0.0 mm 0.00 in0.0 mm 0.00 in0.0 mm
05:00 AM 29.5°F-1.4°C 26.7°F-2.9°C 89% 3.0 mph NNW4.8 kmh NNW 6.0 mph9.7 kmh 30.21 in1023.0 mb 0.00 in0.0 mm 0.00 in0.0 mm 0.00 in0.0 mm
05:15 AM 29.4°F-1.4°C 26.3°F-3.2°C 88% 2.0 mph N3.2 kmh N 8.0 mph12.9 kmh 30.22 in1023.4 mb 0.00 in0.0 mm 0.00 in0.0 mm 0.00 in0.0 mm
05:30 AM 29.4°F-1.4°C 26.0°F-3.3°C 87% 2.0 mph NNW3.2 kmh NNW 4.0 mph6.4 kmh 30.23 in1023.7 mb 0.00 in0.0 mm 0.00 in0.0 mm 0.00 in0.0 mm
05:45 AM 29.4°F-1.4°C 26.3°F-3.2°C 88% 1.0 mph NNW1.6 kmh NNW 5.0 mph8.0 kmh 30.24 in1024.0 mb 0.00 in0.0 mm 0.00 in0.0 mm 0.00 in0.0 mm
06:00 AM 29.3°F-1.5°C 25.9°F-3.4°C 87% 3.0 mph NW4.8 kmh NW 5.0 mph8.0 kmh 30.24 in1024.0 mb 0.00 in0.0 mm 0.00 in0.0 mm 0.00 in0.0 mm
06:15 AM 29.2°F-1.6°C 25.8°F-3.4°C 87% 2.0 mph S3.2 kmh S 3.0 mph4.8 kmh 30.24 in1024.0 mb 0.00 in0.0 mm 0.00 in0.0 mm 0.00 in0.0 mm
06:30 AM 29.0°F-1.7°C 25.9°F-3.4°C 88% 1.0 mph N1.6 kmh N 3.0 mph4.8 kmh 30.25 in1024.4 mb 0.00 in0.0 mm 0.00 in0.0 mm 0.00 in0.0 mm
06:45 AM 28.9°F-1.7°C 25.8°F-3.4°C 88% 3.0 mph NNW4.8 kmh NNW 3.0 mph4.8 kmh 30.25 in1024.4 mb 0.00 in0.0 mm 0.00 in0.0 mm 0.00 in0.0 mm
07:00 AM 28.7°F-1.8°C 25.6°F-3.6°C 88% 1.0 mph NNW1.6 kmh NNW 3.0 mph4.8 kmh 30.26 in1024.7 mb 0.00 in0.0 mm 0.00 in0.0 mm 0.00 in0.0 mm
07:15 AM 28.7°F-1.8°C 25.6°F-3.6°C 88% 5.0 mph NW8.0 kmh NW 5.0 mph8.0 kmh 30.27 in1025.1 mb 0.00 in0.0 mm 0.00 in0.0 mm 0.00 in0.0 mm
07:30 AM 28.8°F-1.8°C 25.2°F-3.8°C 86% 6.0 mph W9.7 kmh W 9.0 mph14.5 kmh 30.28 in1025.4 mb 0.00 in0.0 mm 0.00 in0.0 mm 0.00 in0.0 mm
07:45 AM 28.8°F-1.8°C 24.3°F-4.3°C 83% 3.0 mph NNW4.8 kmh NNW 9.0 mph14.5 kmh 30.29 in1025.7 mb 0.00 in0.0 mm 0.00 in0.0 mm 0.00 in0.0 mm
08:00 AM 28.7°F-1.8°C 24.2°F-4.3°C 83% 3.0 mph NW4.8 kmh NW 8.0 mph12.9 kmh 30.30 in1026.1 mb 0.00 in0.0 mm 0.00 in0.0 mm 0.00 in0.0 mm
08:15 AM 28.6°F-1.9°C 24.1°F-4.4°C 83% 4.0 mph NW6.4 kmh NW 8.0 mph12.9 kmh 30.30 in1026.1 mb 0.00 in0.0 mm 0.00 in0.0 mm 0.00 in0.0 mm
08:30 AM 28.5°F-1.9°C 24.0°F-4.4°C 83% 3.0 mph WNW4.8 kmh WNW 9.0 mph14.5 kmh 30.31 in1026.4 mb 0.00 in0.0 mm 0.00 in0.0 mm 0.00 in0.0 mm
08:45 AM 28.4°F-2.0°C 23.9°F-4.5°C 83% 4.0 mph NW6.4 kmh NW 9.0 mph14.5 kmh 30.31 in1026.4 mb 0.00 in0.0 mm 0.00 in0.0 mm 0.00 in0.0 mm
09:00 AM 28.5°F-1.9°C 24.0°F-4.4°C 83% 3.0 mph NW4.8 kmh NW 11.0 mph17.7 kmh 30.32 in1026.8 mb 0.00 in0.0 mm 0.00 in0.0 mm 0.00 in0.0 mm
09:15 AM 28.5°F-1.9°C 24.0°F-4.4°C 83% 5.0 mph NW8.0 kmh NW 10.0 mph16.1 kmh 30.33 in1027.1 mb 0.00 in0.0 mm 0.00 in0.0 mm 0.00 in0.0 mm
09:30 AM 28.4°F-2.0°C 24.5°F-4.2°C 85% 3.0 mph NNW4.8 kmh NNW 10.0 mph16.1 kmh 30.34 in1027.4 mb 0.00 in0.0 mm 0.00 in0.0 mm 0.00 in0.0 mm
09:45 AM 28.3°F-2.1°C 24.4°F-4.2°C 85% 3.0 mph NW4.8 kmh NW 9.0 mph14.5 kmh 30.35 in1027.8 mb 0.00 in0.0 mm 0.00 in0.0 mm 0.00 in0.0 mm
10:00 AM 28.3°F-2.1°C 24.7°F-4.1°C 86% 5.0 mph N8.0 kmh N 9.0 mph14.5 kmh 30.35 in1027.8 mb 0.00 in0.0 mm 0.00 in0.0 mm 0.00 in0.0 mm
10:15 AM 28.3°F-2.1°C 24.9°F-3.9°C 87% 4.0 mph WNW6.4 kmh WNW 10.0 mph16.1 kmh 30.36 in1028.1 mb 0.00 in0.0 mm 0.00 in0.0 mm 0.00 in0.0 mm
10:30 AM 28.5°F-1.9°C 25.4°F-3.7°C 88% 6.0 mph WNW9.7 kmh WNW 8.0 mph12.9 kmh 30.37 in1028.4 mb 0.00 in0.0 mm 0.00 in0.0 mm 0.00 in0.0 mm
10:45 AM 28.3°F-2.1°C 25.5°F-3.6°C 89% 8.0 mph NW12.9 kmh NW 10.0 mph16.1 kmh 30.38 in1028.8 mb 0.00 in0.0 mm 0.00 in0.0 mm 0.00 in0.0 mm
11:00 AM 27.7°F-2.4°C 25.7°F-3.5°C 92% 7.0 mph NW11.3 kmh NW 8.0 mph12.9 kmh 30.39 in1029.1 mb 0.00 in0.0 mm 0.00 in0.0 mm 0.00 in0.0 mm
11:15 AM 27.6°F-2.4°C 25.6°F-3.6°C 92% 4.0 mph NW6.4 kmh NW 10.0 mph16.1 kmh 30.40 in1029.5 mb 0.00 in0.0 mm 0.00 in0.0 mm 0.00 in0.0 mm
11:30 AM 27.4°F-2.6°C 24.9°F-3.9°C 90% 4.0 mph N6.4 kmh N 13.0 mph20.9 kmh 30.39 in1029.1 mb 0.00 in0.0 mm 0.00 in0.0 mm 0.00 in0.0 mm
11:45 AM 27.9°F-2.3°C 24.5°F-4.2°C 87% 9.0 mph N14.5 kmh N 12.0 mph19.3 kmh 30.39 in1029.1 mb 0.00 in0.0 mm 0.00 in0.0 mm 0.00 in0.0 mm
12:00 PM 29.4°F-1.4°C 25.2°F-3.8°C 84% 3.0 mph WNW4.8 kmh WNW 13.0 mph20.9 kmh 30.39 in1029.1 mb 0.00 in0.0 mm 0.00 in0.0 mm 0.00 in0.0 mm
12:15 PM 30.0°F-1.1°C 24.9°F-3.9°C 81% 5.0 mph NNW8.0 kmh NNW 13.0 mph20.9 kmh 30.40 in1029.5 mb 0.00 in0.0 mm 0.00 in0.0 mm 0.00 in0.0 mm
12:30 PM 29.0°F-1.7°C 23.9°F-4.5°C 81% 3.0 mph WNW4.8 kmh WNW 15.0 mph24.1 kmh 30.41 in1029.8 mb 0.00 in0.0 mm 0.00 in0.0 mm 0.00 in0.0 mm
12:45 PM 28.5°F-1.9°C 23.1°F-4.9°C 80% 11.0 mph NW17.7 kmh NW 14.0 mph22.5 kmh 30.41 in1029.8 mb 0.00 in0.0 mm 0.00 in0.0 mm 0.00 in0.0 mm
01:00 PM 29.4°F-1.4°C 23.4°F-4.8°C 78% 5.0 mph NNW8.0 kmh NNW 11.0 mph17.7 kmh 30.41 in1029.8 mb 0.00 in0.0 mm 0.00 in0.0 mm 0.00 in0.0 mm
01:15 PM 30.1°F-1.1°C 23.5°F-4.7°C 76% 7.0 mph NW11.3 kmh NW 13.0 mph20.9 kmh 30.42 in1030.1 mb 0.00 in0.0 mm 0.00 in0.0 mm 0.00 in0.0 mm
01:30 PM 30.7°F-0.7°C 24.0°F-4.4°C 76% 8.0 mph NNW12.9 kmh NNW 15.0 mph24.1 kmh 30.42 in1030.1 mb 0.00 in0.0 mm 0.00 in0.0 mm 0.00 in0.0 mm
01:45 PM 31.4°F-0.3°C 23.4°F-4.8°C 72% 7.0 mph WNW11.3 kmh WNW 12.0 mph19.3 kmh 30.42 in1030.1 mb 0.00 in0.0 mm 0.00 in0.0 mm 0.00 in0.0 mm
02:00 PM 30.3°F-0.9°C 23.3°F-4.8°C 75% 5.0 mph N8.0 kmh N 14.0 mph22.5 kmh 30.42 in1030.1 mb 0.00 in0.0 mm 0.00 in0.0 mm 0.00 in0.0 mm
02:15 PM 28.9°F-1.7°C 24.4°F-4.2°C 83% 5.0 mph N8.0 kmh N 11.0 mph17.7 kmh 30.43 in1030.5 mb 0.00 in0.0 mm 0.00 in0.0 mm 0.00 in0.0 mm
02:30 PM 27.4°F-2.6°C 24.1°F-4.4°C 87% 1.0 mph NNW1.6 kmh NNW 9.0 mph14.5 kmh 30.44 in1030.8 mb 0.00 in0.0 mm 0.00 in0.0 mm 0.00 in0.0 mm
02:45 PM 27.1°F-2.7°C 24.0°F-4.4°C 88% 9.0 mph NNW14.5 kmh NNW 13.0 mph20.9 kmh 30.45 in1031.2 mb 0.00 in0.0 mm 0.00 in0.0 mm 0.00 in0.0 mm
03:00 PM 26.0°F-3.3°C 22.7°F-5.2°C 87% 5.0 mph N8.0 kmh N 10.0 mph16.1 kmh 30.46 in1031.5 mb 0.00 in0.0 mm 0.00 in0.0 mm 0.00 in0.0 mm
03:15 PM 26.2°F-3.2°C 22.3°F-5.4°C 85% 4.0 mph N6.4 kmh N 9.0 mph14.5 kmh 30.47 in1031.8 mb 0.00 in0.0 mm 0.00 in0.0 mm 0.00 in0.0 mm
03:30 PM 26.7°F-2.9°C 21.4°F-5.9°C 80% 9.0 mph NNW14.5 kmh NNW 13.0 mph20.9 kmh 30.49 in1032.5 mb 0.00 in0.0 mm 0.00 in0.0 mm 0.00 in0.0 mm
03:45 PM 26.5°F-3.1°C 20.6°F-6.3°C 78% 6.0 mph NE9.7 kmh NE 9.0 mph14.5 kmh 30.50 in1032.8 mb 0.00 in0.0 mm 0.00 in0.0 mm 0.00 in0.0 mm
04:00 PM 25.9°F-3.4°C 20.3°F-6.5°C 79% 5.0 mph NNW8.0 kmh NNW 6.0 mph9.7 kmh 30.51 in1033.2 mb 0.00 in0.0 mm 0.00 in0.0 mm 0.00 in0.0 mm
04:15 PM 25.9°F-3.4°C 20.6°F-6.3°C 80% 3.0 mph N4.8 kmh N 6.0 mph9.7 kmh 30.52 in1033.5 mb 0.00 in0.0 mm 0.00 in0.0 mm 0.00 in0.0 mm
04:30 PM 25.3°F-3.7°C 20.0°F-6.7°C 80% 8.0 mph NNW12.9 kmh NNW 11.0 mph17.7 kmh 30.52 in1033.5 mb 0.00 in0.0 mm 0.00 in0.0 mm 0.00 in0.0 mm
04:45 PM 23.7°F-4.6°C 19.6°F-6.9°C 84% 6.0 mph N9.7 kmh N 11.0 mph17.7 kmh 30.54 in1034.2 mb 0.00 in0.0 mm 0.00 in0.0 mm 0.00 in0.0 mm
05:00 PM 23.9°F-4.5°C 18.9°F-7.3°C 81% 2.0 mph NNW3.2 kmh NNW 12.0 mph19.3 kmh 30.56 in1034.9 mb 0.00 in0.0 mm 0.00 in0.0 mm 0.00 in0.0 mm
05:15 PM 23.5°F-4.7°C 18.0°F-7.8°C 79% 3.0 mph N4.8 kmh N 13.0 mph20.9 kmh 30.57 in1035.2 mb 0.00 in0.0 mm 0.00 in0.0 mm 0.00 in0.0 mm
05:30 PM 23.0°F-5.0°C 18.1°F-7.7°C 81% 2.0 mph NNW3.2 kmh NNW 12.0 mph19.3 kmh 30.58 in1035.6 mb 0.00 in0.0 mm 0.00 in0.0 mm 0.00 in0.0 mm
05:45 PM 22.3°F-5.4°C 16.8°F-8.4°C 79% 6.0 mph N9.7 kmh N 10.0 mph16.1 kmh 30.60 in1036.2 mb 0.00 in0.0 mm 0.00 in0.0 mm 0.00 in0.0 mm
06:00 PM 21.9°F-5.6°C 16.4°F-8.7°C 79% 8.0 mph NNW12.9 kmh NNW 10.0 mph16.1 kmh 30.61 in1036.6 mb 0.00 in0.0 mm 0.00 in0.0 mm 0.00 in0.0 mm
06:15 PM 21.2°F-6.0°C 14.8°F-9.6°C 76% 5.0 mph NNW8.0 kmh NNW 13.0 mph20.9 kmh 30.63 in1037.3 mb 0.00 in0.0 mm 0.00 in0.0 mm 0.00 in0.0 mm
06:30 PM 20.4°F-6.4°C 13.1°F-10.5°C 73% 2.0 mph NNW3.2 kmh NNW 15.0 mph24.1 kmh 30.65 in1037.9 mb 0.00 in0.0 mm 0.00 in0.0 mm 0.00 in0.0 mm
06:45 PM 19.5°F-6.9°C 12.6°F-10.8°C 74% 8.0 mph NNW12.9 kmh NNW 11.0 mph17.7 kmh 30.66 in1038.3 mb 0.00 in0.0 mm 0.00 in0.0 mm 0.00 in0.0 mm
07:00 PM 18.8°F-7.3°C 11.6°F-11.3°C 73% 6.0 mph N9.7 kmh N 10.0 mph16.1 kmh 30.67 in1038.6 mb 0.00 in0.0 mm 0.00 in0.0 mm 0.00 in0.0 mm
07:15 PM 18.4°F-7.6°C 11.5°F-11.4°C 74% 7.0 mph NNE11.3 kmh NNE 10.0 mph16.1 kmh 30.68 in1038.9 mb 0.00 in0.0 mm 0.00 in0.0 mm 0.00 in0.0 mm
07:30 PM 17.9°F-7.8°C 11.0°F-11.7°C 74% 3.0 mph NNW4.8 kmh NNW 8.0 mph12.9 kmh 30.69 in1039.3 mb 0.00 in0.0 mm 0.00 in0.0 mm 0.00 in0.0 mm
07:45 PM 17.3°F-8.2°C 10.5°F-11.9°C 74% 4.0 mph N6.4 kmh N 10.0 mph16.1 kmh 30.69 in1039.3 mb 0.00 in0.0 mm 0.00 in0.0 mm 0.00 in0.0 mm
08:00 PM 17.0°F-8.3°C 10.2°F-12.1°C 74% 2.0 mph NNW3.2 kmh NNW 3.0 mph4.8 kmh 30.70 in1039.6 mb 0.00 in0.0 mm 0.00 in0.0 mm 0.00 in0.0 mm
08:15 PM 16.2°F-8.8°C 9.7°F-12.4°C 75% Calm Calm 5.0 mph8.0 kmh 30.71 in1040.0 mb 0.00 in0.0 mm 0.00 in0.0 mm 0.00 in0.0 mm
08:30 PM 15.5°F-9.2°C 9.3°F-12.6°C 76% Calm Calm 2.0 mph3.2 kmh 30.72 in1040.3 mb 0.00 in0.0 mm 0.00 in0.0 mm 0.00 in0.0 mm
08:45 PM 15.1°F-9.4°C 9.2°F-12.7°C 77% 3.0 mph NNW4.8 kmh NNW 3.0 mph4.8 kmh 30.72 in1040.3 mb 0.00 in0.0 mm 0.00 in0.0 mm 0.00 in0.0 mm
09:00 PM 15.0°F-9.4°C 8.8°F-12.9°C 76% 2.0 mph NW3.2 kmh NW 3.0 mph4.8 kmh 30.73 in1040.6 mb 0.00 in0.0 mm 0.00 in0.0 mm 0.00 in0.0 mm
09:15 PM 15.3°F-9.3°C 9.4°F-12.6°C 77% 2.0 mph NW3.2 kmh NW 4.0 mph6.4 kmh 30.74 in1041.0 mb 0.00 in0.0 mm 0.00 in0.0 mm 0.00 in0.0 mm
09:30 PM 15.8°F-9.0°C 10.2°F-12.1°C 78% 3.0 mph N4.8 kmh N 4.0 mph6.4 kmh 30.75 in1041.3 mb 0.00 in0.0 mm 0.00 in0.0 mm 0.00 in0.0 mm
09:45 PM 16.2°F-8.8°C 10.6°F-11.9°C 78% 2.0 mph NNW3.2 kmh NNW 4.0 mph6.4 kmh 30.75 in1041.3 mb 0.00 in0.0 mm 0.00 in0.0 mm 0.00 in0.0 mm
10:00 PM 18.3°F-7.6°C 11.4°F-11.4°C 74% 13.0 mph SE20.9 kmh SE 16.0 mph25.7 kmh 30.76 in1041.7 mb 0.00 in0.0 mm 0.00 in0.0 mm 0.00 in0.0 mm
10:15 PM 18.3°F-7.6°C 12.0°F-11.1°C 76% 13.0 mph ESE20.9 kmh ESE 15.0 mph24.1 kmh 30.76 in1041.7 mb 0.00 in0.0 mm 0.00 in0.0 mm 0.00 in0.0 mm
10:30 PM 18.3°F-7.6°C 12.6°F-10.8°C 78% 14.0 mph SE22.5 kmh SE 17.0 mph27.4 kmh 30.76 in1041.7 mb 0.00 in0.0 mm 0.00 in0.0 mm 0.00 in0.0 mm
10:45 PM 18.5°F-7.5°C 12.5°F-10.8°C 77% 14.0 mph SE22.5 kmh SE 18.0 mph29.0 kmh 30.77 in1042.0 mb 0.00 in0.0 mm 0.00 in0.0 mm 0.00 in0.0 mm
11:00 PM 18.9°F-7.3°C 12.3°F-10.9°C 75% 22.0 mph SE35.4 kmh SE 27.0 mph43.5 kmh 30.78 in1042.3 mb 0.00 in0.0 mm 0.00 in0.0 mm 0.00 in0.0 mm
11:15 PM 19.0°F-7.2°C 12.4°F-10.9°C 75% 15.0 mph SE24.1 kmh SE 22.0 mph35.4 kmh 30.80 in1043.0 mb 0.00 in0.0 mm 0.00 in0.0 mm 0.00 in0.0 mm
11:30 PM 19.0°F-7.2°C 12.4°F-10.9°C 75% 17.0 mph SE27.4 kmh SE 18.0 mph29.0 kmh 30.81 in1043.3 mb 0.00 in0.0 mm 0.00 in0.0 mm 0.00 in0.0 mm
11:45 PM 19.0°F-7.2°C 12.4°F-10.9°C 75% 13.0 mph SE20.9 kmh SE 19.0 mph30.6 kmh 30.81 in1043.3 mb 0.00 in0.0 mm 0.00 in0.0 mm 0.00 in0.0 mm